Time;durP1;ratioP1;P1;durP2;ratioP2;P2;SDS_P1;SDS_P2;PMS_P1;PMS_P2;Temp;Humidity;BMP_temperature;BMP_pressure;BME280_temperature;BME280_humidity;BME280_pressure;Samples;Min_cycle;Max_cycle;Signal;HPM_P1;HPM_P2
2021/10/03 00:00:31;;;;;;;25.50;15.98;;;;;;;14.07;nan;100137.50;5035829;28;20036;-81
2021/10/03 00:02:59;;;;;;;24.05;15.70;;;;;;;14.06;nan;100129.63;5071208;28;20036;-80
2021/10/03 00:05:29;;;;;;;16.60;11.57;;;;;;;14.15;nan;100138.97;5056237;28;20481;-83
2021/10/03 00:07:59;;;;;;;13.80;10.85;;;;;;;14.16;nan;100140.69;5065854;28;20048;-84
2021/10/03 00:10:27;;;;;;;14.07;10.63;;;;;;;14.09;nan;100134.78;5053562;28;20489;-84
2021/10/03 00:12:55;;;;;;;14.75;10.60;;;;;;;14.08;nan;100136.59;5054534;28;20032;-82
2021/10/03 00:15:23;;;;;;;14.50;10.93;;;;;;;14.08;nan;100127.75;5055734;28;20047;-86
2021/10/03 00:17:52;;;;;;;16.25;11.73;;;;;;;14.03;nan;100135.91;5033940;28;20039;-85
2021/10/03 00:20:19;;;;;;;15.73;11.40;;;;;;;14.12;nan;100131.13;5056028;28;20388;-81
2021/10/03 00:22:47;;;;;;;16.65;11.77;;;;;;;14.08;nan;100128.59;5071834;28;20403;-81
2021/10/03 00:25:14;;;;;;;16.00;12.13;;;;;;;14.16;nan;100125.63;5072809;28;20050;-83
2021/10/03 00:27:42;;;;;;;15.20;11.30;;;;;;;14.21;nan;100114.78;5049310;28;20438;-83
2021/10/03 00:30:10;;;;;;;16.40;11.43;;;;;;;14.23;nan;100121.78;5056188;28;20058;-82
2021/10/03 00:32:38;;;;;;;14.32;10.90;;;;;;;14.15;nan;100113.28;5051275;28;20040;-81
2021/10/03 00:35:05;;;;;;;15.43;11.35;;;;;;;14.16;nan;100111.47;5032030;28;20063;-81
2021/10/03 00:37:32;;;;;;;15.32;11.80;;;;;;;14.25;nan;100111.94;5044724;28;20044;-81
2021/10/03 00:39:59;;;;;;;15.63;11.10;;;;;;;14.34;nan;100100.03;5062899;28;20032;-79
2021/10/03 00:42:26;;;;;;;14.88;12.38;;;;;;;14.34;nan;100105.34;5048718;28;20051;-80
2021/10/03 00:44:54;;;;;;;18.23;12.40;;;;;;;14.37;nan;100108.72;5050749;28;20038;-80
2021/10/03 00:47:21;;;;;;;18.83;11.30;;;;;;;14.34;nan;100110.66;5041187;28;20040;-81
2021/10/03 00:49:48;;;;;;;17.52;11.77;;;;;;;14.35;nan;100104.41;5060098;28;20051;-81
2021/10/03 00:52:15;;;;;;;15.75;11.07;;;;;;;14.43;nan;100101.41;5043810;28;20063;-81
2021/10/03 00:54:45;;;;;;;17.50;11.50;;;;;;;14.43;nan;100104.94;5047298;28;20744;-81
2021/10/03 00:57:13;;;;;;;16.23;11.68;;;;;;;14.36;nan;100096.38;5056736;28;20050;-82
2021/10/03 00:59:40;;;;;;;18.65;11.65;;;;;;;14.47;nan;100100.38;5062833;28;20519;-81
2021/10/03 01:02:08;;;;;;;15.88;11.82;;;;;;;14.43;nan;100112.03;5057207;28;20044;-81
2021/10/03 01:04:35;;;;;;;15.23;10.98;;;;;;;14.44;nan;100114.63;5048233;28;20515;-81
2021/10/03 01:07:02;;;;;;;15.95;11.85;;;;;;;14.44;nan;100103.13;5066631;28;20048;-81
2021/10/03 01:09:29;;;;;;;14.90;11.57;;;;;;;14.45;nan;100108.41;5062639;28;20521;-80
2021/10/03 01:11:56;;;;;;;17.70;11.60;;;;;;;14.40;nan;100106.88;5064659;28;20126;-79
2021/10/03 01:14:23;;;;;;;14.52;11.70;;;;;;;14.46;nan;100094.22;5050551;28;20405;-80
2021/10/03 01:16:50;;;;;;;15.20;11.15;;;;;;;14.33;nan;100096.50;5065608;28;20040;-81
2021/10/03 01:19:18;;;;;;;17.35;11.60;;;;;;;14.44;nan;100096.03;5051070;28;20044;-80
2021/10/03 01:21:48;;;;;;;16.33;11.73;;;;;;;14.41;nan;100095.31;5033849;28;20050;-80
2021/10/03 01:24:15;;;;;;;15.88;11.88;;;;;;;14.40;nan;100096.25;5064469;28;20040;-80
2021/10/03 01:26:42;;;;;;;14.93;10.27;;;;;;;14.32;nan;100091.28;5087226;28;20070;-80
2021/10/03 01:29:10;;;;;;;15.02;10.40;;;;;;;14.30;nan;100082.50;5049910;28;20036;-81
2021/10/03 01:31:37;;;;;;;16.30;10.88;;;;;;;14.31;nan;100078.91;5063775;28;20063;-80
2021/10/03 01:34:04;;;;;;;17.15;11.30;;;;;;;14.26;nan;100079.13;5062871;28;20048;-81
2021/10/03 01:36:31;;;;;;;14.82;10.88;;;;;;;14.21;nan;100075.81;5067292;28;20042;-80
2021/10/03 01:38:58;;;;;;;15.45;10.30;;;;;;;14.31;nan;100062.97;5043794;28;20055;-80
2021/10/03 01:41:25;;;;;;;15.00;10.88;;;;;;;14.27;nan;100069.34;5047264;28;20412;-81
2021/10/03 01:43:52;;;;;;;15.07;10.35;;;;;;;14.32;nan;100070.00;5077733;28;20412;-81
2021/10/03 01:46:19;;;;;;;14.73;10.20;;;;;;;14.39;nan;100078.56;5064225;28;20050;-80
2021/10/03 01:48:46;;;;;;;13.57;10.15;;;;;;;14.42;nan;100079.28;5059854;28;20032;-81
2021/10/03 01:51:15;;;;;;;13.52;9.90;;;;;;;14.30;nan;100071.88;5065857;28;20040;-80
2021/10/03 01:53:48;;;;;;;16.50;10.60;;;;;;;14.26;nan;100072.94;5064899;28;20046;-80
2021/10/03 01:56:17;;;;;;;15.88;11.07;;;;;;;14.32;nan;100062.91;5067936;28;20186;-80
2021/10/03 01:58:47;;;;;;;15.43;10.88;;;;;;;14.44;nan;100069.44;5044843;28;20493;-80
2021/10/03 02:01:24;;;;;;;14.35;10.70;;;;;;;14.46;nan;100069.41;5048967;28;20036;-81
2021/10/03 02:03:52;;;;;;;13.20;9.75;;;;;;;14.49;nan;100071.94;5057548;28;20044;-81
2021/10/03 02:06:19;;;;;;;13.57;10.35;;;;;;;14.49;nan;100064.81;5071538;28;20036;-81
2021/10/03 02:08:52;;;;;;;15.75;10.07;;;;;;;14.44;nan;100061.47;5055164;28;20036;-81
2021/10/03 02:11:19;;;;;;;15.48;10.68;;;;;;;14.41;nan;100058.97;5087148;28;20038;-81
2021/10/03 02:13:46;;;;;;;14.32;10.95;;;;;;;14.44;nan;100061.47;5047263;28;20392;-80
2021/10/03 02:16:13;;;;;;;12.75;9.52;;;;;;;14.48;nan;100065.75;5053618;28;20040;-81
2021/10/03 02:18:41;;;;;;;11.18;9.32;;;;;;;14.42;nan;100065.13;5049542;28;20068;-81
2021/10/03 02:21:09;;;;;;;13.18;10.30;;;;;;;14.52;nan;100062.00;5070578;28;20041;-81
2021/10/03 02:23:36;;;;;;;14.05;10.05;;;;;;;14.46;nan;100074.72;5049998;28;20627;-81
2021/10/03 02:26:04;;;;;;;10.90;9.18;;;;;;;14.45;nan;100063.22;5053497;28;20048;-82
2021/10/03 02:28:32;;;;;;;11.77;9.88;;;;;;;14.50;nan;100071.00;5050309;28;20036;-81
2021/10/03 02:31:03;;;;;;;12.98;9.88;;;;;;;14.43;nan;100062.41;5051606;28;20044;-81
2021/10/03 02:33:30;;;;;;;14.25;9.27;;;;;;;14.43;nan;100072.19;5065975;28;20046;-80
2021/10/03 02:35:57;;;;;;;12.35;8.98;;;;;;;14.44;nan;100066.78;5072807;28;20048;-80
2021/10/03 02:38:25;;;;;;;13.05;9.07;;;;;;;14.35;nan;100070.72;5038148;28;20052;-81
2021/10/03 02:40:54;;;;;;;13.95;9.65;;;;;;;14.37;nan;100057.38;5050923;28;20028;-80
2021/10/03 02:43:24;;;;;;;12.73;9.10;;;;;;;14.30;nan;100058.59;5051032;28;20048;-80
2021/10/03 02:45:52;;;;;;;13.85;9.48;;;;;;;14.22;nan;100052.78;5050218;28;20056;-80
2021/10/03 02:48:21;;;;;;;12.13;9.55;;;;;;;14.16;nan;100064.53;5057450;28;20052;-80
2021/10/03 02:50:49;;;;;;;14.77;10.55;;;;;;;14.21;nan;100058.97;5031079;28;20401;-81
2021/10/03 02:53:18;;;;;;;13.23;9.07;;;;;;;14.22;nan;100056.28;5060080;28;20039;-82
2021/10/03 02:55:45;;;;;;;13.88;9.73;;;;;;;14.25;nan;100050.81;5053145;28;20043;-80
2021/10/03 02:58:12;;;;;;;13.63;9.98;;;;;;;14.29;nan;100044.47;5050713;28;20069;-80
2021/10/03 03:00:40;;;;;;;13.38;8.20;;;;;;;14.20;nan;100046.63;5052215;28;20432;-80
2021/10/03 03:03:07;;;;;;;12.45;9.57;;;;;;;14.12;nan;100027.53;5046942;28;20067;-81
2021/10/03 03:05:35;;;;;;;11.40;8.52;;;;;;;14.11;nan;100034.63;5037472;28;20032;-81
2021/10/03 03:08:03;;;;;;;13.73;9.00;;;;;;;14.16;nan;100032.66;5072309;28;20036;-81
2021/10/03 03:10:30;;;;;;;15.57;9.52;;;;;;;14.18;nan;100044.06;5052108;28;20027;-81
2021/10/03 03:12:57;;;;;;;11.77;8.77;;;;;;;14.18;nan;100037.88;5050057;28;20379;-80
2021/10/03 03:15:25;;;;;;;13.60;9.77;;;;;;;14.16;nan;100032.66;5048909;28;20059;-81
2021/10/03 03:17:52;;;;;;;10.43;8.93;;;;;;;14.07;nan;100041.03;5053394;28;20070;-80
2021/10/03 03:20:19;;;;;;;13.07;9.30;;;;;;;14.11;nan;100034.63;5072920;28;20025;-81
2021/10/03 03:22:46;;;;;;;12.23;9.02;;;;;;;14.11;nan;100031.97;5049342;28;20038;-80
2021/10/03 03:25:14;;;;;;;14.32;9.70;;;;;;;14.11;nan;100034.63;5071189;28;20690;-80
2021/10/03 03:27:41;;;;;;;13.18;8.70;;;;;;;14.08;nan;100038.31;5047562;28;20409;-80
2021/10/03 03:30:10;;;;;;;15.13;8.88;;;;;;;14.01;nan;100041.28;5063470;28;20036;-82
2021/10/03 03:32:37;;;;;;;11.30;9.07;;;;;;;13.95;nan;100037.09;5034131;28;20501;-81
2021/10/03 03:35:06;;;;;;;13.77;8.73;;;;;;;13.91;nan;100035.53;5054394;28;20513;-80
2021/10/03 03:37:32;;;;;;;14.07;9.48;;;;;;;14.00;nan;100023.63;5056244;28;20059;-79
2021/10/03 03:39:59;;;;;;;14.07;9.68;;;;;;;14.01;nan;100035.97;5051473;28;20062;-80
2021/10/03 03:42:26;;;;;;;15.30;9.18;;;;;;;13.93;nan;100038.13;5062532;28;20505;-81
2021/10/03 03:44:53;;;;;;;12.77;9.75;;;;;;;13.95;nan;100030.94;5052062;28;20038;-80
2021/10/03 03:47:20;;;;;;;12.77;9.85;;;;;;;13.96;nan;100032.69;5048467;28;20513;-81
2021/10/03 03:49:51;;;;;;;13.10;9.55;;;;;;;13.96;nan;100028.25;5070165;28;20038;-80
2021/10/03 03:52:19;;;;;;;14.02;10.57;;;;;;;13.95;nan;100029.13;5063183;28;20046;-79
2021/10/03 03:54:46;;;;;;;14.52;9.88;;;;;;;13.92;nan;100031.09;5070042;28;20384;-78
2021/10/03 03:57:13;;;;;;;10.50;8.60;;;;;;;14.00;nan;100028.94;5042440;28;20040;-80
2021/10/03 03:59:40;;;;;;;12.57;8.93;;;;;;;13.92;nan;100029.28;5053641;28;20223;-79
2021/10/03 04:02:07;;;;;;;10.95;8.90;;;;;;;13.96;nan;100028.25;5052559;28;20040;-79
2021/10/03 04:04:34;;;;;;;10.70;8.90;;;;;;;13.94;nan;100030.06;5087703;28;20039;-79
2021/10/03 04:07:03;;;;;;;13.60;9.80;;;;;;;13.94;nan;100023.91;5049388;28;20042;-79
2021/10/03 04:09:31;;;;;;;14.32;9.10;;;;;;;13.88;nan;100026.84;5065772;28;20481;-79
2021/10/03 04:11:58;;;;;;;12.90;8.85;;;;;;;13.91;nan;100016.94;5064675;28;20040;-80
2021/10/03 04:14:27;;;;;;;12.40;8.88;;;;;;;13.90;nan;100015.22;5037541;28;20054;-80
2021/10/03 04:16:55;;;;;;;14.02;8.77;;;;;;;13.90;nan;100020.53;5066705;28;20051;-80
2021/10/03 04:19:22;;;;;;;12.07;8.75;;;;;;;13.98;nan;100015.75;5086589;28;20621;-79
2021/10/03 04:21:49;;;;;;;13.23;8.82;;;;;;;13.98;nan;100012.22;5051953;28;20036;-81
2021/10/03 04:24:16;;;;;;;13.15;9.30;;;;;;;13.93;nan;100012.41;5046090;28;20443;-79
2021/10/03 04:26:42;;;;;;;11.65;8.50;;;;;;;14.00;nan;100013.88;5067893;28;20046;-80
2021/10/03 04:29:09;;;;;;;11.43;9.27;;;;;;;13.94;nan;100003.53;5085697;28;20511;-80
2021/10/03 04:31:36;;;;;;;12.38;9.60;;;;;;;13.90;nan;100017.00;5051722;28;20028;-80
2021/10/03 04:34:04;;;;;;;13.10;9.27;;;;;;;13.94;nan;100029.22;5062578;28;20034;-80
2021/10/03 04:36:31;;;;;;;12.65;8.93;;;;;;;13.95;nan;100029.13;5067213;28;20036;-79
2021/10/03 04:38:58;;;;;;;12.98;8.98;;;;;;;13.89;nan;100018.81;5049690;28;20487;-78
2021/10/03 04:41:25;;;;;;;13.55;9.38;;;;;;;13.94;nan;100016.78;5067257;28;20070;-79
2021/10/03 04:43:52;;;;;;;10.73;8.50;;;;;;;13.94;nan;100019.44;5036580;28;20042;-79
2021/10/03 04:46:19;;;;;;;12.27;8.95;;;;;;;13.93;nan;100017.72;5067945;28;20531;-79
2021/10/03 04:48:46;;;;;;;9.75;8.60;;;;;;;13.91;nan;100019.59;5065280;28;20036;-79
2021/10/03 04:51:13;;;;;;;12.70;9.20;;;;;;;13.89;nan;100010.84;5079013;28;20505;-80
2021/10/03 04:53:40;;;;;;;11.18;8.93;;;;;;;13.95;nan;100005.25;5048694;28;20048;-79
2021/10/03 04:56:08;;;;;;;11.13;9.23;;;;;;;13.95;nan;100021.16;5067197;28;20040;-80
2021/10/03 04:58:35;;;;;;;11.38;8.40;;;;;;;13.94;nan;100026.56;5080382;28;20040;-81
2021/10/03 05:01:02;;;;;;;10.20;8.82;;;;;;;14.02;nan;100032.41;5049492;28;20492;-79
2021/10/03 05:03:30;;;;;;;12.02;9.48;;;;;;;14.11;nan;100025.81;5077718;28;20054;-80
2021/10/03 05:05:57;;;;;;;13.38;9.18;;;;;;;14.12;nan;100022.22;5060758;28;20036;-80
2021/10/03 05:08:24;;;;;;;11.98;9.05;;;;;;;14.20;nan;100030.69;5046006;28;22046;-80
2021/10/03 05:10:51;;;;;;;14.68;8.98;;;;;;;14.14;nan;100034.53;5064537;28;20028;-80
2021/10/03 05:13:18;;;;;;;12.55;8.52;;;;;;;14.17;nan;100029.06;5064990;28;20043;-81
2021/10/03 05:15:45;;;;;;;13.15;9.55;;;;;;;14.21;nan;100020.03;5064791;28;20412;-80
2021/10/03 05:18:12;;;;;;;11.52;9.20;;;;;;;14.14;nan;100017.72;5077337;28;20049;-80
2021/10/03 05:20:39;;;;;;;11.43;9.15;;;;;;;14.17;nan;100012.25;5061127;28;20067;-80
2021/10/03 05:23:06;;;;;;;11.82;9.07;;;;;;;14.21;nan;100008.50;5049693;28;20047;-80
2021/10/03 05:25:33;;;;;;;12.07;8.77;;;;;;;14.24;nan;100016.34;5046143;28;20040;-81
2021/10/03 05:28:00;;;;;;;13.30;9.25;;;;;;;14.26;nan;100014.47;5050218;28;20051;-81
2021/10/03 05:30:27;;;;;;;12.00;8.90;;;;;;;14.20;nan;100020.06;5046521;28;20037;-81
2021/10/03 05:32:54;;;;;;;12.23;9.18;;;;;;;14.22;nan;100016.44;5046644;28;20051;-80
2021/10/03 05:35:21;;;;;;;12.32;9.48;;;;;;;14.22;nan;100023.53;5047451;28;20051;-81
2021/10/03 05:37:48;;;;;;;16.48;9.98;;;;;;;14.22;nan;100010.25;5118212;22;20517;-81
2021/10/03 05:40:16;;;;;;;13.05;9.05;;;;;;;14.28;nan;100018.78;5050188;28;20630;-78
2021/10/03 05:42:43;;;;;;;13.15;9.65;;;;;;;14.26;nan;100011.81;5033364;28;20033;-80
2021/10/03 05:45:10;;;;;;;14.07;9.57;;;;;;;14.29;nan;100009.91;5048775;28;20034;-80
2021/10/03 05:47:37;;;;;;;13.75;9.13;;;;;;;14.37;nan;100017.50;5049457;28;20046;-79
2021/10/03 05:50:06;;;;;;;13.23;9.40;;;;;;;14.41;nan;100013.78;5059330;28;20036;-80
2021/10/03 05:52:33;;;;;;;13.88;9.32;;;;;;;14.32;nan;100004.44;5052064;28;20492;-82
2021/10/03 05:55:00;;;;;;;12.73;9.50;;;;;;;14.41;nan;100010.28;5050875;28;20043;-79
2021/10/03 05:57:27;;;;;;;11.57;9.45;;;;;;;14.45;nan;100017.16;5053289;28;20400;-80
2021/10/03 05:59:54;;;;;;;14.68;9.40;;;;;;;14.42;nan;100019.97;5054281;28;20039;-80
2021/10/03 06:02:21;;;;;;;13.52;9.63;;;;;;;14.48;nan;100039.19;5054165;28;20032;-81
2021/10/03 06:04:49;;;;;;;14.73;9.90;;;;;;;14.51;nan;100031.06;5059947;28;20092;-80
2021/10/03 06:07:16;;;;;;;12.70;9.68;;;;;;;14.37;nan;100029.00;5046511;28;20123;-81
2021/10/03 06:09:44;;;;;;;13.98;9.35;;;;;;;14.44;nan;100018.94;5056591;28;20032;-80
2021/10/03 06:12:11;;;;;;;13.10;9.63;;;;;;;14.46;nan;100011.81;5077118;22;20046;-80
2021/10/03 06:14:39;;;;;;;14.43;9.38;;;;;;;14.43;nan;100016.38;5076027;28;20504;-80
2021/10/03 06:17:06;;;;;;;12.55;10.00;;;;;;;14.48;nan;100022.38;5074053;28;20040;-80
2021/10/03 06:19:33;;;;;;;12.95;9.40;;;;;;;14.51;nan;100014.25;5042251;28;20042;-81
2021/10/03 06:22:01;;;;;;;13.10;9.25;;;;;;;14.62;nan;100014.59;5066688;28;20047;-82
2021/10/03 06:24:28;;;;;;;13.05;9.30;;;;;;;14.62;nan;100019.91;5049093;28;20768;-81
2021/10/03 06:26:55;;;;;;;15.57;10.27;;;;;;;14.64;nan;100018.91;5085649;28;20042;-81
2021/10/03 06:29:22;;;;;;;13.73;9.13;;;;;;;14.67;nan;100009.94;5074230;28;20054;-81
2021/10/03 06:31:50;;;;;;;12.65;9.15;;;;;;;14.68;nan;100016.09;5062063;28;20036;-81
2021/10/03 06:34:17;;;;;;;12.73;8.93;;;;;;;14.69;nan;100013.38;5067045;28;20036;-81
2021/10/03 06:36:44;;;;;;;14.43;9.68;;;;;;;14.77;nan;100011.22;5052629;28;20040;-81
2021/10/03 06:39:11;;;;;;;14.73;9.60;;;;;;;14.74;nan;100014.03;5083761;28;20440;-82
2021/10/03 06:41:38;;;;;;;13.45;9.40;;;;;;;14.74;nan;100019.34;5053053;28;20086;-83
2021/10/03 06:44:07;;;;;;;13.88;10.15;;;;;;;14.86;nan;100023.19;5051748;28;20040;-81
2021/10/03 06:46:34;;;;;;;14.65;10.20;;;;;;;14.87;nan;100035.56;5036522;28;20054;-82
2021/10/03 06:49:01;;;;;;;13.23;9.60;;;;;;;14.78;nan;100039.53;5044465;28;20041;-82
2021/10/03 06:51:29;;;;;;;14.07;9.43;;;;;;;14.82;nan;100045.56;5047842;28;20424;-84
2021/10/03 06:53:56;;;;;;;13.77;9.73;;;;;;;14.83;nan;100049.94;5025532;28;20036;-84
2021/10/03 06:56:23;;;;;;;14.77;9.70;;;;;;;14.78;nan;100038.66;5051404;28;20050;-83
2021/10/03 06:58:50;;;;;;;11.02;9.40;;;;;;;14.86;nan;100031.19;5063625;28;20051;-81
2021/10/03 07:01:17;;;;;;;14.07;10.50;;;;;;;14.93;nan;100040.59;5051480;28;20036;-81
2021/10/03 07:03:45;;;;;;;11.88;9.95;;;;;;;14.90;nan;100046.06;5038584;28;20055;-82
2021/10/03 07:06:12;;;;;;;12.25;9.73;;;;;;;14.87;nan;100048.84;5048364;28;20493;-82
2021/10/03 07:08:39;;;;;;;13.68;9.75;;;;;;;14.88;nan;100045.25;5026758;28;20432;-82
2021/10/03 07:11:06;;;;;;;15.77;10.13;;;;;;;15.04;nan;100046.25;5051077;28;20396;-81
2021/10/03 07:13:33;;;;;;;13.73;10.40;;;;;;;15.02;nan;100044.59;5055863;28;20036;-83
2021/10/03 07:16:00;;;;;;;14.05;10.07;;;;;;;14.95;nan;100044.03;5049693;28;20396;-82
2021/10/03 07:18:27;;;;;;;15.60;11.02;;;;;;;15.05;nan;100048.00;5058891;28;20394;-81
2021/10/03 07:20:55;;;;;;;11.88;9.50;;;;;;;14.99;nan;100042.97;5064914;28;20032;-82
2021/10/03 07:23:21;;;;;;;15.20;10.38;;;;;;;15.06;nan;100039.06;5033714;28;20538;-81
2021/10/03 07:25:49;;;;;;;15.18;10.48;;;;;;;15.17;nan;100039.41;5071360;28;20058;-80
2021/10/03 07:28:16;;;;;;;14.07;10.13;;;;;;;15.20;nan;100052.53;5069489;28;20046;-82
2021/10/03 07:30:43;;;;;;;12.38;9.38;;;;;;;15.24;nan;100047.94;5055163;28;20483;-81
2021/10/03 07:33:10;;;;;;;12.95;10.25;;;;;;;15.26;nan;100038.09;5046189;28;20036;-81
2021/10/03 07:35:37;;;;;;;13.40;10.70;;;;;;;15.25;nan;100044.34;5071615;28;20530;-81
2021/10/03 07:38:04;;;;;;;13.63;10.30;;;;;;;15.35;nan;100044.75;5081622;28;20043;-81
2021/10/03 07:40:31;;;;;;;15.07;10.32;;;;;;;15.34;nan;100043.03;5055812;28;20039;-81
2021/10/03 07:42:58;;;;;;;13.88;10.50;;;;;;;15.47;nan;100036.16;5054995;28;20063;-81
2021/10/03 07:45:25;;;;;;;12.55;10.15;;;;;;;15.52;nan;100041.25;5053869;28;20404;-82
2021/10/03 07:47:53;;;;;;;16.20;12.15;;;;;;;15.56;nan;100038.34;5046200;28;20040;-80
2021/10/03 07:50:20;;;;;;;21.77;15.48;;;;;;;15.59;nan;100032.88;5053391;28;20051;-82
2021/10/03 07:52:47;;;;;;;25.20;18.05;;;;;;;15.57;nan;100045.41;5042120;28;20385;-82
2021/10/03 07:55:14;;;;;;;16.00;10.80;;;;;;;15.55;nan;100033.09;5070609;28;20040;-81
2021/10/03 07:57:41;;;;;;;13.82;10.32;;;;;;;15.57;nan;100032.09;5054140;28;20074;-83
2021/10/03 08:00:09;;;;;;;14.10;11.25;;;;;;;15.73;nan;100035.72;5036695;28;20416;-81
2021/10/03 08:02:36;;;;;;;12.55;10.60;;;;;;;15.75;nan;100036.50;5052974;28;20037;-82
2021/10/03 08:05:04;;;;;;;11.90;10.68;;;;;;;15.92;nan;100038.28;5072009;28;20039;-81
2021/10/03 08:07:32;;;;;;;13.55;10.00;;;;;;;15.86;nan;100035.06;5037019;28;20062;-82
2021/10/03 08:09:59;;;;;;;13.13;9.80;;;;;;;15.80;nan;100032.72;5053144;28;20044;-82
2021/10/03 08:12:28;;;;;;;14.23;12.68;;;;;;;16.01;nan;100026.28;5041513;28;20033;-82
2021/10/03 08:14:55;;;;;;;12.50;10.25;;;;;;;16.12;nan;100023.91;5050032;28;20032;-82
2021/10/03 08:17:22;;;;;;;13.77;10.15;;;;;;;16.11;nan;100023.97;5049861;28;20400;-81
2021/10/03 08:19:49;;;;;;;12.57;10.10;;;;;;;16.15;nan;100021.09;5055721;28;20040;-82
2021/10/03 08:22:16;;;;;;;15.35;10.10;;;;;;;16.11;nan;100029.31;5053745;28;20046;-81
2021/10/03 08:24:43;;;;;;;13.07;10.50;;;;;;;16.12;nan;100026.56;5088562;28;20358;-81
2021/10/03 08:27:10;;;;;;;13.90;10.63;;;;;;;16.18;nan;100026.25;5053828;28;20036;-81
2021/10/03 08:29:37;;;;;;;12.18;10.10;;;;;;;16.19;nan;100033.28;5071527;28;20044;-81
2021/10/03 08:32:05;;;;;;;13.80;10.15;;;;;;;16.16;nan;100033.47;5053046;28;20046;-81
2021/10/03 08:34:32;;;;;;;16.80;10.77;;;;;;;16.14;nan;100035.31;5046064;28;20032;-81
2021/10/03 08:36:59;;;;;;;12.27;9.88;;;;;;;16.27;nan;100033.75;5064284;28;20652;-81
2021/10/03 08:39:26;;;;;;;11.85;10.32;;;;;;;16.36;nan;100031.53;5050019;28;20032;-82
2021/10/03 08:41:54;;;;;;;13.65;9.50;;;;;;;16.33;nan;100021.91;5066023;28;20032;-82
2021/10/03 08:44:21;;;;;;;12.27;10.23;;;;;;;16.36;nan;100021.72;5048491;28;20536;-81
2021/10/03 08:46:52;;;;;;;12.55;10.32;;;;;;;16.46;nan;100027.41;5069993;28;20046;-82
2021/10/03 08:49:19;;;;;;;14.25;10.50;;;;;;;16.47;nan;100019.31;5050424;28;20071;-81
2021/10/03 08:51:50;;;;;;;14.82;11.13;;;;;;;16.65;nan;100006.78;5045095;28;20043;-80
2021/10/03 08:54:18;;;;;;;11.10;9.02;;;;;;;16.74;nan;100008.13;5059548;28;20051;-81
2021/10/03 08:56:46;;;;;;;14.75;10.25;;;;;;;16.81;nan;100014.81;5038124;28;20048;-82
2021/10/03 08:59:57;;;;;;;13.70;9.88;;;;;;;16.88;nan;100011.69;5037620;28;20049;-81
2021/10/03 09:02:25;;;;;;;14.23;10.02;;;;;;;16.81;nan;100010.31;5067612;28;20036;-81
2021/10/03 09:04:58;;;;;;;14.95;9.73;;;;;;;16.89;nan;100012.56;5060459;28;20481;-82
2021/10/03 09:07:25;;;;;;;11.57;9.05;;;;;;;16.86;nan;100002.06;5061747;28;20032;-83
2021/10/03 09:10:00;;;;;;;11.93;9.68;;;;;;;16.82;nan;99997.88;5047687;28;20395;-81
2021/10/03 09:12:29;;;;;;;15.30;10.23;;;;;;;16.80;nan;99999.75;5050100;28;20051;-80
2021/10/03 09:14:57;;;;;;;15.48;9.55;;;;;;;16.63;nan;100000.66;5062948;28;20028;-80
2021/10/03 09:17:25;;;;;;;20.17;11.85;;;;;;;16.71;nan;100008.28;5052623;28;20043;-80
2021/10/03 09:20:16;;;;;;;14.82;9.68;;;;;;;16.69;nan;100008.34;5068117;28;20036;-79
2021/10/03 09:22:53;;;;;;;13.00;9.07;;;;;;;16.69;nan;100012.84;5061878;28;20492;-81
2021/10/03 09:25:33;;;;;;;13.52;9.68;;;;;;;16.74;nan;100011.66;5067951;28;20044;-79
2021/10/03 09:28:01;;;;;;;10.40;8.75;;;;;;;16.77;nan;100006.13;5055019;28;20052;-80
2021/10/03 09:30:28;;;;;;;11.05;9.25;;;;;;;16.76;nan;99998.22;5063986;28;20039;-80
2021/10/03 09:32:57;;;;;;;13.65;9.52;;;;;;;16.78;nan;99999.84;5066830;28;20036;-81
2021/10/03 09:35:29;;;;;;;12.18;9.60;;;;;;;16.95;nan;100003.34;5058325;28;20497;-81
2021/10/03 09:37:57;;;;;;;13.70;9.25;;;;;;;16.99;nan;100004.91;5058227;28;20040;-81
2021/10/03 09:40:24;;;;;;;11.68;9.30;;;;;;;16.99;nan;100002.25;5073115;28;20036;-81
2021/10/03 09:42:53;;;;;;;14.45;9.90;;;;;;;16.96;nan;100005.94;5071035;28;20090;-81
2021/10/03 09:45:22;;;;;;;12.07;9.43;;;;;;;16.84;nan;99999.50;5090885;28;20081;-81
2021/10/03 09:48:08;;;;;;;16.42;11.00;;;;;;;17.02;nan;99997.59;5070869;28;20036;-81
2021/10/03 09:50:40;;;;;;;13.50;10.13;;;;;;;17.03;nan;100007.31;5065314;28;20035;-81
2021/10/03 09:53:08;;;;;;;12.20;9.73;;;;;;;17.08;nan;99999.91;5054516;28;20067;-81
2021/10/03 09:55:36;;;;;;;14.15;9.55;;;;;;;17.14;nan;100006.69;5064874;28;20040;-82
2021/10/03 09:58:04;;;;;;;12.75;9.05;;;;;;;17.14;nan;100006.69;5070945;28;20040;-81
2021/10/03 10:00:31;;;;;;;10.88;9.43;;;;;;;17.14;nan;100002.19;5047661;28;20050;-82
2021/10/03 10:02:58;;;;;;;12.40;8.73;;;;;;;17.10;nan;100006.00;5050254;28;20039;-81
2021/10/03 10:05:27;;;;;;;14.50;10.43;;;;;;;17.19;nan;99987.75;5071646;28;20046;-82
2021/10/03 10:07:56;;;;;;;11.45;9.60;;;;;;;17.15;nan;99982.59;5050912;28;20433;-81
2021/10/03 10:10:23;;;;;;;13.75;9.98;;;;;;;17.29;nan;99980.91;5055867;28;20032;-81
2021/10/03 10:12:55;;;;;;;15.23;9.98;;;;;;;17.41;nan;99986.41;5068614;28;20036;-80
2021/10/03 10:15:24;;;;;;;12.93;9.02;;;;;;;17.49;nan;99987.72;5048377;28;20032;-81
2021/10/03 10:17:51;;;;;;;14.40;10.50;;;;;;;17.61;nan;100003.03;5071022;28;20036;-81
2021/10/03 10:20:22;;;;;;;12.55;10.25;;;;;;;17.60;nan;100002.19;5057790;28;20044;-83
2021/10/03 10:23:03;;;;;;;11.55;9.48;;;;;;;17.69;nan;99995.41;5066921;28;20408;-81
2021/10/03 10:25:38;;;;;;;13.52;9.48;;;;;;;17.75;nan;99996.91;5072011;28;20055;-81
2021/10/03 10:28:08;;;;;;;12.57;9.18;;;;;;;17.74;nan;100006.72;5086098;28;20044;-81
2021/10/03 10:30:37;;;;;;;14.95;10.13;;;;;;;17.71;nan;100009.56;5049636;28;20044;-81
2021/10/03 10:33:06;;;;;;;13.55;9.65;;;;;;;17.72;nan;100012.13;5049132;28;20040;-81
2021/10/03 10:35:34;;;;;;;11.90;9.18;;;;;;;17.80;nan;100011.69;5034416;28;20044;-83
2021/10/03 10:38:01;;;;;;;12.43;9.35;;;;;;;17.83;nan;100016.88;5038135;28;20074;-81
2021/10/03 10:40:31;;;;;;;13.20;9.07;;;;;;;17.92;nan;100028.81;5086870;28;20047;-81
2021/10/03 10:43:04;;;;;;;11.48;9.30;;;;;;;17.96;nan;100036.53;5044921;28;20041;-82
2021/10/03 10:45:33;;;;;;;13.77;9.48;;;;;;;17.95;nan;100029.47;5062925;28;20036;-82
2021/10/03 10:48:09;;;;;;;10.90;8.90;;;;;;;18.10;nan;100021.47;5064776;28;20314;-82
2021/10/03 10:50:38;;;;;;;11.32;8.77;;;;;;;18.15;nan;100027.38;5068728;28;20070;-83
2021/10/03 10:53:27;;;;;;;10.43;8.93;;;;;;;18.27;nan;100027.50;5067578;28;20040;-83
2021/10/03 10:56:11;;;;;;;9.80;8.57;;;;;;;18.49;nan;100016.28;5060650;28;20823;-82
2021/10/03 10:59:02;;;;;;;12.15;8.75;;;;;;;18.64;nan;100017.13;5066109;28;20047;-83
2021/10/03 11:01:36;;;;;;;11.73;9.00;;;;;;;18.87;nan;100010.34;5071929;28;20044;-82
2021/10/03 11:04:04;;;;;;;12.38;9.95;;;;;;;18.94;nan;100006.31;5079243;28;20033;-83
2021/10/03 11:06:31;;;;;;;11.18;8.75;;;;;;;19.07;nan;100001.84;5066966;28;20028;-83
2021/10/03 11:08:58;;;;;;;13.35;8.57;;;;;;;19.24;nan;99997.19;5088581;28;20493;-84
2021/10/03 11:11:37;;;;;;;11.70;8.15;;;;;;;19.46;nan;99993.94;5068242;28;20043;-84
2021/10/03 11:14:09;;;;;;;11.98;7.95;;;;;;;19.59;nan;99987.69;5053896;28;20044;-83
2021/10/03 11:16:37;;;;;;;9.05;7.75;;;;;;;19.66;nan;99988.94;5061498;28;20032;-83
2021/10/03 11:19:16;;;;;;;9.98;7.85;;;;;;;19.84;nan;99997.56;5072762;28;20047;-83
2021/10/03 11:21:48;;;;;;;9.25;7.40;;;;;;;20.00;nan;99996.47;5046976;28;20040;-83
2021/10/03 11:24:26;;;;;;;10.13;8.00;;;;;;;20.18;nan;100014.84;5066911;28;20040;-83
2021/10/03 11:26:58;;;;;;;10.10;7.97;;;;;;;20.34;nan;99995.78;5046520;28;20049;-83
2021/10/03 11:29:28;;;;;;;10.90;7.93;;;;;;;20.65;nan;99993.63;5040125;28;20047;-83
2021/10/03 11:31:55;;;;;;;9.90;8.20;;;;;;;20.77;nan;99992.75;5062933;28;20068;-81
2021/10/03 11:34:33;;;;;;;8.55;7.53;;;;;;;20.93;nan;100003.19;5067100;28;20040;-81
2021/10/03 11:37:12;;;;;;;10.50;7.53;;;;;;;21.18;nan;100003.09;5066656;28;20050;-81